This is the latest recevied weather packets stored in our database for station/object ENST. If no packets are shown the sender has not sent any weather packets the latest 10 day(s).
| Time | Temp. | Humidity | Pressure | Rain* | Wind** | Luminosity | Snow |
|---|---|---|---|---|---|---|---|
| 1778155387 | 5.56° C | 81% | 1016 hPa | - | - | - | - |
| 1778153588 | 5° C | 86% | 1016 hPa | - | - | - | - |
| 1778151787 | 5° C | 93% | 1016 hPa | - | - | - | - |
| 1778149987 | 2.78° C | 93% | 1016 hPa | - | - | - | - |
| 1778148188 | 2.78° C | 93% | 1016 hPa | - | - | - | - |
| 1778146388 | 2.78° C | 86% | 1015 hPa | - | - | - | - |
| 1778144588 | 1.67° C | 93% | 1015 hPa | - | - | - | - |
| 1778142787 | 1.67° C | 93% | 1015 hPa | - | - | - | - |
| 1778140988 | 0.56° C | 93% | 1015 hPa | - | - | - | - |
| 1778139188 | 1.67° C | 93% | 1014 hPa | - | - | - | - |
| 1778137387 | 1.67° C | 93% | 1014 hPa | - | - | - | - |
| 1778135587 | 2.78° C | 86% | 1014 hPa | - | - | - | - |
| 1778133787 | 3.89° C | 80% | 1013 hPa | - | - | - | - |
| 1778131987 | 3.89° C | 80% | 1013 hPa | - | - | - | - |
| 1778130187 | 2.78° C | 86% | 1013 hPa | - | - | - | - |
| 1778128388 | 2.78° C | 86% | 1013 hPa | - | - | - | - |
| 1778126588 | 2.78° C | 86% | 1013 hPa | - | - | - | - |
| 1778124787 | 2.78° C | 86% | 1013 hPa | - | - | - | - |
| 1778122986 | 2.78° C | 86% | 1012 hPa | - | - | - | - |
| 1778121187 | 2.78° C | 86% | 1012 hPa | - | - | - | - |
| 1778119387 | 2.78° C | 86% | 1012 hPa | - | - | - | - |
| 1778117587 | 2.78° C | 80% | 1012 hPa | - | - | - | - |
| 1778115787 | 3.89° C | 75% | 1012 hPa | - | - | - | - |
| 1778113987 | 2.78° C | 86% | 1012 hPa | - | - | - | - |
| 1778112187 | 2.78° C | 86% | 1012 hPa | - | - | - | - |
* Rain since midnight (hover to see other rain measurements)
** Current wind speed in m/s (hover to see current wind gust speed)